Upstream stations:
Downstream station:
SHEF ID: NSCO2 Spavinaw Creek near Eucha, OK
STATION TYPE:
STAGE STAGE(2) RIV-FLOW BAT-LOAD
ft ft cfs volt
Ccp-Rev Ccp-Rev Ccp-Rev Ccp-Rev
(US/Central)
07/05 00:00 7.89 7.89 176 12.33
07/05 01:00 7.93 7.89 186 12.33
07/05 02:00 7.91 7.89 181 12.33
07/05 03:00 7.89 7.89 176 12.33
07/05 04:00 7.89 7.89 176 12.25
07/05 05:00 7.89 7.89 176 12.25
07/05 06:00 7.89 7.89 176 12.25
07/05 07:00 7.88 7.90 174 12.25
07/05 08:00 7.90 7.90 179 12.25
07/05 09:00 7.91 7.88 181 12.33
07/05 10:00 7.93 7.88 186 12.41
07/05 11:00 7.94 7.89 189 12.57
07/05 12:00 7.94 7.88 189 12.57
07/05 13:00 7.97 7.90 196 12.57
07/05 14:00 7.97 7.92 196 12.65
07/05 15:00 7.98 7.90 199 12.57
07/05 16:00 7.96 7.87 194 12.57
07/05 17:00 7.95 7.87 191 12.49
07/05 18:00 7.95 7.88 191 12.41
07/05 19:00 7.93 7.88 186 12.41
07/05 20:00 7.90 7.86 179 12.41
07/05 21:00 7.90 7.87 179 12.41
07/05 22:00 7.89 7.87 176 12.41
07/05 23:00 ---- ---- ---- ----